Latest Weather Observations for Camooweal

IDQ60801

Issued at 10:35 pm EST Wednesday 20 August 2014 (issued every 30 minutes, with the page automatically refreshed every 10 minutes)

About weather observations | Map of weather stations | Latest weather observations for QLD | Other Formats
Station Details ID: 037010 Name: CAMOOWEAL TOWNSHIP Lat: -19.92 Lon: 138.12 Height: 231.2 m
Data from the previous 72 hours. | See also: Recent months at Camooweal
Date/Time
EST
Temp
°C
App
Temp
°C
Dew
Point
Rel
Hum
%
Delta-T
°C
Wind Press
QNH
hPa
Press
MSL
hPa
Rain
since 9 am
mm
Dir
 
Spd
km/h
Gust
km/h
Spd
kts
Gust
kts
20/10:30pm 12.7 8.0 -5.3 28 6.7 S 11 13 6 7 1019.3 1018.7 0.0
20/10:00pm 13.7 9.1 -4.0 29 6.8 SSW 11 15 6 8 1019.4 1018.8 0.0
20/09:30pm 14.6 10.0 -4.2 27 7.3 SSW 11 13 6 7 1019.3 1018.7 0.0
20/09:00pm 16.1 10.7 -4.4 24 8.0 SSW 15 17 8 9 1019.0 1018.4 0.0
20/08:30pm 17.1 11.4 -3.6 24 8.4 SSW 17 20 9 11 1018.7 1018.1 0.0
20/08:00pm 17.6 12.3 -3.2 24 8.5 SSW 15 17 8 9 1018.2 1017.6 0.0
20/07:30pm 17.4 12.9 -3.4 24 8.5 SSW 11 13 6 7 1017.7 1017.0 0.0
20/07:00pm 19.0 14.6 -2.6 23 9.1 SSW 11 13 6 7 1017.2 1016.5 0.0
20/06:30pm 21.0 15.8 -2.8 20 10.2 SSW 15 20 8 11 1016.9 1016.2 0.0
20/06:00pm 22.3 17.4 -3.1 18 10.9 S 13 20 7 11 1016.7 1016.0 0.0
20/05:30pm 22.8 18.0 -2.7 18 11.1 SSE 13 22 7 12 1016.5 1015.8 0.0
20/05:00pm 23.2 18.0 -2.4 18 11.2 SSW 15 24 8 13 1016.3 1015.6 0.0
20/04:30pm 23.5 19.0 -2.9 17 11.5 SSW 11 24 6 13 1016.2 1015.5 0.0
20/04:00pm 24.0 18.2 -1.8 18 11.5 SSW 19 24 10 13 1016.1 1015.4 0.0
20/03:30pm 23.8 19.1 -1.9 18 11.4 SSE 13 24 7 13 1016.3 1015.6 0.0
20/03:00pm 23.7 19.0 -2.0 18 11.4 SW 13 24 7 13 1016.5 1015.8 0.0
20/02:30pm 23.5 19.5 -2.2 18 11.3 SSW 9 30 5 16 1016.9 1016.2 0.0
20/02:00pm 22.7 18.3 -2.8 18 11.0 S 11 20 6 11 1017.5 1016.8 0.0
20/01:30pm 22.4 17.3 -2.3 19 10.8 ESE 15 22 8 12 1018.0 1017.4 0.0
20/01:00pm 22.5 16.4 -2.2 19 10.8 S 20 28 11 15 1018.5 1017.9 0.0
20/12:30pm 22.4 16.4 -1.6 20 10.6 S 20 26 11 14 1019.0 1018.4 0.0
20/12:00pm 22.2 16.4 -1.8 20 10.5 ESE 19 28 10 15 1019.5 1018.9 0.0
20/11:30am 21.7 15.2 -2.2 20 10.4 SE 22 28 12 15 1020.0 1019.3 0.0
20/11:00am 20.4 13.1 -2.6 21 9.8 E 26 32 14 17 1020.4 1019.7 0.0
20/10:30am 19.5 13.4 -2.2 23 9.2 SE 20 30 11 16 1020.6 1019.9 0.0
20/10:00am 18.9 11.8 -1.5 25 8.7 SE 26 35 14 19 1020.8 1020.1 0.0
20/09:30am 17.6 10.8 -1.6 27 8.1 SE 24 32 13 17 1020.9 1020.2 0.0
20/09:00am 15.8 9.8 -1.7 30 7.2 SE 20 30 11 16 1021.0 1020.3 0.0
20/08:30am 13.2 8.5 -1.9 35 6.1 SE 13 19 7 10 1020.8 1020.1 0.0
20/08:27am 12.9 8.6 -1.8 36 5.9 SE 11 17 6 9 1020.8 1020.1 0.0
20/08:00am 7.9 4.2 -3.3 45 4.1 S 7 9 4 5 1020.6 1019.9 0.0
20/07:30am 6.0 1.8 -3.6 50 3.4 SSW 9 11 5 6 1020.3 1019.6 0.0
20/07:00am 5.9 1.7 -4.0 49 3.5 SSW 9 11 5 6 1020.3 1019.6 0.0
20/06:30am 6.4 1.8 -4.1 47 3.7 SSW 11 13 6 7 1019.9 1019.2 0.0
20/06:00am 6.4 1.8 -3.8 48 3.6 SSW 11 11 6 6 1019.3 1018.7 0.0
20/05:30am 7.2 2.7 -3.3 47 3.8 SSW 11 13 6 7 1019.1 1018.5 0.0
20/05:00am 7.2 2.7 -3.3 47 3.8 SSW 11 11 6 6 1018.9 1018.3 0.0
20/04:30am 7.9 3.8 -2.7 47 4.0 SSW 9 13 5 7 1018.9 1018.3 0.0
20/04:00am 8.6 4.2 -2.1 47 4.1 SSW 11 13 6 7 1018.7 1018.1 0.0
20/03:30am 8.8 4.8 -2.5 45 4.3 S 9 11 5 6 1018.6 1018.0 0.0
20/03:00am 9.6 5.2 -2.3 43 4.6 S 11 13 6 7 1018.8 1018.2 0.0
20/02:30am 10.6 6.6 -2.4 40 5.0 SSE 9 11 5 6 1018.8 1018.2 0.0
20/02:00am 11.6 7.2 -2.6 37 5.5 S 11 15 6 8 1018.9 1018.3 0.0
20/01:30am 13.3 8.1 -2.6 33 6.3 S 15 19 8 10 1019.0 1018.4 0.0
20/01:00am 14.5 9.0 -2.4 31 6.8 S 17 24 9 13 1019.0 1018.4 0.0
20/12:30am 15.3 9.5 -1.7 31 7.0 E 19 24 10 13 1019.1 1018.5 0.0
20/12:00am 15.6 9.6 -1.9 30 7.2 ESE 20 28 11 15 1019.0 1018.4 0.0
 
Date/Time
EST
Temp
°C
App
Temp
°C
Dew
Point
Rel
Hum
%
Delta-T
°C
Wind Press
QNH
hPa
Press
MSL
hPa
Rain
since 9 am
mm
Dir
 
Spd
km/h
Gust
km/h
Spd
kts
Gust
kts
19/11:30pm 16.3 10.5 -1.3 30 7.4 ESE 19 26 10 14 1018.9 1018.3 0.0
19/11:00pm 16.5 10.6 -1.1 30 7.4 SE 20 24 11 13 1019.0 1018.4 0.0
19/10:30pm 16.9 11.2 -0.8 30 7.6 SSE 19 24 10 13 1019.0 1018.4 0.0
19/10:00pm 16.9 11.5 -1.7 28 7.8 SSE 17 20 9 11 1018.8 1018.2 0.0
19/09:30pm 17.4 12.4 -1.3 28 8.0 S 15 20 8 11 1018.7 1018.1 0.0
19/09:00pm 17.5 12.5 -1.2 28 8.0 S 15 19 8 10 1018.5 1017.9 0.0
19/08:30pm 16.6 12.0 -1.0 30 7.5 S 13 15 7 8 1018.3 1017.7 0.0
19/08:00pm 17.1 12.5 -1.1 29 7.7 S 13 15 7 8 1018.0 1017.4 0.0
19/07:30pm 18.7 14.5 -1.2 26 8.6 E 11 15 6 8 1017.7 1017.0 0.0
19/07:00pm 20.1 15.4 -1.7 23 9.4 SE 13 17 7 9 1017.4 1016.7 0.0
19/06:30pm 21.5 16.1 -1.1 22 10.0 SE 17 20 9 11 1017.2 1016.5 0.0
19/06:00pm 22.5 17.2 -0.9 21 10.5 SE 17 20 9 11 1017.0 1016.3 0.0
19/05:30pm 23.0 17.1 -1.1 20 10.8 SSE 20 24 11 13 1016.8 1016.1 0.0
19/05:00pm 23.4 17.7 -0.8 20 10.9 SE 19 28 10 15 1016.8 1016.1 0.0
19/04:30pm 23.8 17.6 -0.5 20 11.1 S 22 30 12 16 1016.8 1016.1 0.0
19/04:00pm 24.0 18.4 -0.3 20 11.1 S 19 28 10 15 1016.9 1016.2 0.0
19/03:30pm 23.9 19.0 -0.4 20 11.1 S 15 24 8 13 1017.2 1016.5 0.0
19/03:00pm 23.3 18.8 -0.2 21 10.7 ESE 13 20 7 11 1017.6 1016.9 0.0
19/02:30pm 23.1 17.5 0.9 23 10.4 S 20 32 11 17 1017.8 1017.1 0.0
19/02:00pm 22.8 18.5 1.2 24 10.1 S 13 15 7 8 1018.3 1017.7 0.0
19/01:30pm 23.0 17.6 1.4 24 10.2 SSE 19 28 10 15 1018.9 1018.3 0.0
19/01:00pm 22.1 17.9 1.7 26 9.6 SSE 13 24 7 13 1019.4 1018.8 0.0
19/12:30pm 21.6 17.0 1.8 27 9.3 SE 15 26 8 14 1020.1 1019.4 0.0
19/12:00pm 21.2 16.6 1.5 27 9.1 SE 15 26 8 14 1020.7 1020.0 0.0
19/11:30am 20.9 16.4 2.2 29 8.8 ESE 15 26 8 14 1021.3 1020.6 0.0
19/11:00am 20.7 16.0 3.0 31 8.4 SE 17 41 9 22 1021.7 1021.0 0.0
19/10:30am 19.7 14.4 3.0 33 7.9 SE 20 28 11 15 1022.0 1021.4 0.0
19/10:00am 18.7 12.7 3.3 36 7.3 SE 24 30 13 16 1022.1 1021.5 0.0
19/09:30am 17.8 11.9 4.0 40 6.6 ESE 24 32 13 17 1022.0 1021.4 0.0
19/09:00am 16.4 11.3 4.1 44 5.8 SE 20 30 11 16 1022.0 1021.4 0.0
19/08:30am 14.0 9.7 3.5 49 4.8 SE 15 20 8 11 1022.0 1021.4 0.0
19/08:00am 10.0 7.3 2.6 60 3.2 SW 6 7 3 4 1021.7 1021.0 0.0
19/07:30am 8.9 6.2 2.5 64 2.7 WSW 6 7 3 4 1021.4 1020.7 0.0
19/07:00am 8.9 6.0 2.5 64 2.7 SSW 7 9 4 5 1021.1 1020.4 0.0
19/06:30am 9.4 6.0 2.0 60 3.1 S 9 11 5 6 1020.7 1020.0 0.0
19/06:00am 11.4 7.8 3.2 57 3.6 ESE 11 17 6 9 1020.3 1019.6 0.0
19/05:30am 9.1 5.7 2.0 61 3.0 SSE 9 13 5 7 1020.0 1019.3 0.0
19/05:00am 9.4 5.7 2.3 61 3.0 SSW 11 13 6 7 1019.8 1019.1 0.0
19/04:30am 11.7 8.1 3.0 55 3.9 SE 11 15 6 8 1019.6 1019.0 0.0
19/04:00am 12.4 8.4 3.1 53 4.1 SE 13 15 7 8 1019.6 1019.0 0.0
19/03:30am 12.9 8.9 3.0 51 4.4 SE 13 19 7 10 1019.6 1019.0 0.0
19/03:00am 13.5 9.2 3.3 50 4.6 SE 15 20 8 11 1019.5 1018.9 0.0
19/02:30am 13.4 9.0 2.9 49 4.7 ESE 15 19 8 10 1019.8 1019.1 0.0
19/02:00am 14.0 9.6 2.9 47 5.0 SE 15 19 8 10 1019.8 1019.1 0.0
19/01:30am 14.4 10.0 2.9 46 5.2 SE 15 20 8 11 1019.9 1019.2 0.0
19/01:00am 14.9 10.6 3.1 45 5.4 SSE 15 22 8 12 1020.0 1019.3 0.0
19/12:30am 15.2 10.9 3.0 44 5.6 SSE 15 20 8 11 1020.1 1019.4 0.0
19/12:00am 15.5 11.2 3.0 43 5.7 S 15 20 8 11 1020.2 1019.5 0.0
 
Date/Time
EST
Temp
°C
App
Temp
°C
Dew
Point
Rel
Hum
%
Delta-T
°C
Wind Press
QNH
hPa
Press
MSL
hPa
Rain
since 9 am
mm
Dir
 
Spd
km/h
Gust
km/h
Spd
kts
Gust
kts
18/11:30pm 14.6 10.2 2.8 45 5.3 S 15 20 8 11 1020.2 1019.5 0.0
18/11:00pm 12.9 8.7 1.9 47 4.8 S 13 15 7 8 1020.3 1019.6 0.0
18/10:30pm 13.6 10.1 1.3 43 5.3 SSW 9 9 5 5 1020.3 1019.6 0.0
18/10:00pm 13.8 10.3 1.1 42 5.5 SSW 9 9 5 5 1020.2 1019.5 0.0
18/09:30pm 14.7 11.2 1.3 40 5.9 SSW 9 9 5 5 1020.2 1019.5 0.0
18/09:00pm 14.9 11.0 1.1 39 6.0 S 11 13 6 7 1020.0 1019.3 0.0
18/08:30pm 15.9 11.6 0.9 36 6.6 S 13 13 7 7 1019.6 1019.0 0.0
18/08:00pm 16.8 12.8 0.5 33 7.1 S 11 13 6 7 1019.3 1018.7 0.0
18/07:30pm 18.1 13.7 0.3 30 7.9 SSE 13 15 7 8 1018.9 1018.3 0.0
18/07:00pm 19.6 15.2 0.6 28 8.5 SE 13 17 7 9 1018.5 1017.9 0.0
18/06:30pm 20.8 15.8 1.1 27 9.1 SSE 17 22 9 12 1018.1 1017.5 0.0
18/06:00pm 21.8 16.3 0.9 25 9.6 SE 19 26 10 14 1017.9 1017.2 0.0
18/05:30pm 22.3 16.9 1.3 25 9.8 SSE 19 24 10 13 1017.7 1017.0 0.0
18/05:00pm 22.5 17.1 1.5 25 9.8 SSE 19 28 10 15 1017.6 1016.9 0.0
18/04:30pm 22.6 17.5 1.0 24 10.1 SSE 17 26 9 14 1017.6 1016.9 0.0
18/04:00pm 23.4 18.5 1.7 24 10.3 SE 17 26 9 14 1017.7 1017.0 0.0
18/03:30pm 22.9 17.6 1.8 25 10.0 SSE 19 28 10 15 1017.9 1017.2 0.0
18/03:00pm 22.1 17.9 1.7 26 9.6 SE 13 22 7 12 1018.0 1017.4 0.0
18/02:30pm 22.2 17.7 2.3 27 9.5 SSE 15 26 8 14 1018.4 1017.8 0.0
18/02:00pm 21.6 16.9 3.3 30 8.8 SE 17 28 9 15 1018.8 1018.2 0.0
18/01:30pm 21.2 16.4 2.5 29 8.9 SE 17 32 9 17 1019.3 1018.7 0.0
18/01:00pm 20.7 16.0 3.4 32 8.3 SE 17 30 9 16 1020.0 1019.3 0.0
18/12:30pm 20.3 15.3 3.5 33 8.1 SSE 19 30 10 16 1020.5 1019.8 0.0
18/12:00pm 19.4 13.4 3.6 35 7.5 SSE 24 30 13 16 1021.1 1020.4 0.0
18/11:30am 18.6 13.2 4.4 39 6.9 SE 22 33 12 18 1021.5 1020.8 0.0
18/11:00am 18.0 12.2 4.6 41 6.4 SE 24 33 13 18 1022.0 1021.4 0.0
18/10:30am 17.2 10.4 4.9 44 5.9 SSE 30 37 16 20 1022.0 1021.4 0.0
18/10:00am 16.3 9.8 4.7 46 5.5 SE 28 39 15 21 1022.2 1021.6 0.0
18/09:30am 15.3 8.8 4.9 50 4.9 SE 28 33 15 18 1022.1 1021.5 0.0
18/09:00am 14.2 9.6 3.9 50 4.7 SE 17 22 9 12 1022.1 1021.5 0.0
18/08:30am 12.3 8.3 3.0 53 4.1 SE 13 20 7 11 1022.0 1021.4 0.0
18/08:00am 7.6 3.8 -1.1 54 3.3 S 9 11 5 6 1021.8 1021.2 0.0
18/07:30am 5.3 1.4 -1.8 60 2.6 S 9 11 5 6 1021.6 1020.9 0.0
18/07:00am 6.0 2.5 -1.6 58 2.8 SSW 7 7 4 4 1021.4 1020.7 0.0
18/06:30am 6.9 3.4 -1.0 57 3.0 SSW 7 9 4 5 1021.1 1020.4 0.0
18/06:00am 8.3 4.9 -0.7 53 3.5 S 7 11 4 6 1020.8 1020.1 0.0
18/05:30am 10.2 5.7 0.0 49 4.2 SE 13 17 7 9 1020.4 1019.7 0.0
18/05:00am 10.4 6.1 0.7 51 4.0 SE 13 17 7 9 1020.3 1019.6 0.0
18/04:30am 8.7 4.5 -0.9 51 3.8 SE 11 13 6 7 1020.4 1019.7 0.0
18/04:00am 10.8 6.3 -0.3 46 4.5 SE 13 17 7 9 1020.5 1019.8 0.0
18/03:30am 11.5 6.2 -0.3 44 4.8 SSE 17 22 9 12 1020.5 1019.8 0.0
18/03:00am 11.6 6.4 -0.2 44 4.8 SE 17 20 9 11 1020.5 1019.8 0.0
18/02:30am 10.9 6.9 0.3 48 4.4 SE 11 15 6 8 1020.8 1020.1 0.0
18/02:00am 9.4 5.7 -0.2 51 3.9 S 9 11 5 6 1020.8 1020.1 0.0
18/01:30am 10.1 6.4 0.2 50 4.1 SSE 9 13 5 7 1020.8 1020.1 0.0
18/01:00am 11.3 7.6 0.1 46 4.6 SE 9 11 5 6 1020.9 1020.2 0.0
18/12:30am 12.2 8.2 0.3 44 5.0 SE 11 15 6 8 1020.9 1020.2 0.0
18/12:00am 12.6 8.9 0.0 42 5.2 ESE 9 11 5 6 1021.0 1020.3 0.0
 
Date/Time
EST
Temp
°C
App
Temp
°C
Dew
Point
Rel
Hum
%
Delta-T
°C
Wind Press
QNH
hPa
Press
MSL
hPa
Rain
since 9 am
mm
Dir
 
Spd
km/h
Gust
km/h
Spd
kts
Gust
kts
17/11:30pm 13.2 8.8 0.3 41 5.5 SE 13 17 7 9 1020.9 1020.2 0.0
17/11:00pm 13.1 8.7 0.2 41 5.4 SE 13 17 7 9 1020.9 1020.2 0.0

Other Formats:

Comma delimited format used in spreadsheet applications
http://www.bom.gov.au/fwo/IDQ60801/IDQ60801.94255.axf

JavaScript Object Notation format (JSON) in row-major order
http://www.bom.gov.au/fwo/IDQ60801/IDQ60801.94255.json